Terminal Aerodrome Forecast
Issued by NWS Sioux Falls, SD

Home | Current Version | Previous Version | Graphics & Text | Print | Product List | Glossary Off
Versions: 1 2 3 4 5 6 7 8 9 10 11 12 13 14

028
FTUS43 KFSD 241140
TAFHON
TAF
KHON 241140Z 2412/2512 14007KT P6SM BKN250
     FM241800 16013G20KT P6SM SCT100 BKN200
     FM250400 15015KT P6SM SCT200 WS020/17040KT
     FM251100 17013KT P6SM FEW250 WS020/21040KT=

USA.gov is the U.S. government's official web portal to all federal, state and local government web resources and services.